sensor_id;sensor_type;location;lat;lon;timestamp;pressure;altitude;pressure_sealevel;temperature;humidity
13690;BME280;6917;52.194;9.894;2022-08-01T00:01:33;100199.56;;;18.11;100.00
13690;BME280;6917;52.194;9.894;2022-08-01T00:03:59;100193.63;;;18.09;100.00
13690;BME280;6917;52.194;9.894;2022-08-01T00:06:24;100197.59;;;18.11;100.00
13690;BME280;6917;52.194;9.894;2022-08-01T00:08:50;100192.06;;;18.11;100.00
13690;BME280;6917;52.194;9.894;2022-08-01T00:11:15;100196.06;;;18.14;100.00
13690;BME280;6917;52.194;9.894;2022-08-01T00:13:41;100190.53;;;18.14;100.00
13690;BME280;6917;52.194;9.894;2022-08-01T00:16:06;100185.00;;;18.14;100.00
13690;BME280;6917;52.194;9.894;2022-08-01T00:18:31;100195.69;;;18.16;100.00
13690;BME280;6917;52.194;9.894;2022-08-01T00:20:57;100195.31;;;18.17;100.00
13690;BME280;6917;52.194;9.894;2022-08-01T00:23:22;100196.91;;;18.18;100.00
13690;BME280;6917;52.194;9.894;2022-08-01T00:25:47;100191.44;;;18.22;100.00
13690;BME280;6917;52.194;9.894;2022-08-01T00:28:13;100195.00;;;18.22;100.00
13690;BME280;6917;52.194;9.894;2022-08-01T00:30:38;100189.47;;;18.22;100.00
13690;BME280;6917;52.194;9.894;2022-08-01T00:33:04;100185.56;;;18.23;100.00
13690;BME280;6917;52.194;9.894;2022-08-01T00:35:29;100191.91;;;18.24;100.00
13690;BME280;6917;52.194;9.894;2022-08-01T00:37:55;100192.25;;;18.22;100.00
13690;BME280;6917;52.194;9.894;2022-08-01T00:40:21;100190.31;;;18.23;100.00
13690;BME280;6917;52.194;9.894;2022-08-01T00:42:46;100195.00;;;18.22;100.00
13690;BME280;6917;52.194;9.894;2022-08-01T00:45:11;100189.94;;;18.24;100.00
13690;BME280;6917;52.194;9.894;2022-08-01T00:47:37;100181.25;;;18.26;100.00
13690;BME280;6917;52.194;9.894;2022-08-01T00:50:06;100187.16;;;18.24;100.00
13690;BME280;6917;52.194;9.894;2022-08-01T00:52:33;100191.94;;;18.27;100.00
13690;BME280;6917;52.194;9.894;2022-08-01T00:54:59;100189.19;;;18.27;100.00
13690;BME280;6917;52.194;9.894;2022-08-01T00:57:25;100187.16;;;18.24;100.00
13690;BME280;6917;52.194;9.894;2022-08-01T00:59:51;100190.34;;;18.26;100.00
13690;BME280;6917;52.194;9.894;2022-08-01T01:02:17;100180.03;;;18.23;100.00
13690;BME280;6917;52.194;9.894;2022-08-01T01:04:43;100184.41;;;18.24;100.00
13690;BME280;6917;52.194;9.894;2022-08-01T01:07:26;100176.09;;;18.24;100.00
13690;BME280;6917;52.194;9.894;2022-08-01T01:10:14;100181.56;;;18.21;100.00
13690;BME280;6917;52.194;9.894;2022-08-01T01:13:05;100175.97;;;18.17;100.00
13690;BME280;6917;52.194;9.894;2022-08-01T01:15:51;100176.72;;;18.14;100.00
13690;BME280;6917;52.194;9.894;2022-08-01T01:18:23;100168.38;;;18.10;100.00
13690;BME280;6917;52.194;9.894;2022-08-01T01:21:02;100172.63;;;18.08;100.00
13690;BME280;6917;52.194;9.894;2022-08-01T01:29:28;100164.22;;;18.01;100.00
13690;BME280;6917;52.194;9.894;2022-08-01T01:31:58;100163.81;;;17.99;100.00
13690;BME280;6917;52.194;9.894;2022-08-01T01:34:28;100174.00;;;17.95;100.00
13690;BME280;6917;52.194;9.894;2022-08-01T01:36:54;100166.06;;;17.93;100.00
13690;BME280;6917;52.194;9.894;2022-08-01T01:39:24;100168.03;;;17.93;100.00
13690;BME280;6917;52.194;9.894;2022-08-01T01:41:51;100167.59;;;17.91;100.00
13690;BME280;6917;52.194;9.894;2022-08-01T01:44:18;100160.47;;;17.90;100.00
13690;BME280;6917;52.194;9.894;2022-08-01T01:46:44;100165.56;;;17.88;100.00
13690;BME280;6917;52.194;9.894;2022-08-01T01:49:11;100165.56;;;17.88;100.00
13690;BME280;6917;52.194;9.894;2022-08-01T01:51:38;100163.97;;;17.87;100.00
13690;BME280;6917;52.194;9.894;2022-08-01T01:54:06;100170.31;;;17.87;100.00
13690;BME280;6917;52.194;9.894;2022-08-01T01:56:33;100160.41;;;17.86;100.00
13690;BME280;6917;52.194;9.894;2022-08-01T01:59:01;100166.31;;;17.84;100.00
13690;BME280;6917;52.194;9.894;2022-08-01T02:01:29;100163.13;;;17.82;100.00
13690;BME280;6917;52.194;9.894;2022-08-01T02:03:56;100165.47;;;17.80;100.00
13690;BME280;6917;52.194;9.894;2022-08-01T02:06:24;100166.25;;;17.81;100.00
13690;BME280;6917;52.194;9.894;2022-08-01T02:08:52;100163.03;;;17.79;100.00
13690;BME280;6917;52.194;9.894;2022-08-01T02:11:19;100161.91;;;17.80;100.00
13690;BME280;6917;52.194;9.894;2022-08-01T02:13:54;100168.22;;;17.80;100.00
13690;BME280;6917;52.194;9.894;2022-08-01T02:16:23;100165.81;;;17.79;100.00
13690;BME280;6917;52.194;9.894;2022-08-01T02:18:49;100166.63;;;17.79;100.00
13690;BME280;6917;52.194;9.894;2022-08-01T02:21:20;100163.03;;;17.79;100.00
13690;BME280;6917;52.194;9.894;2022-08-01T02:23:48;100169.44;;;17.83;100.00
13690;BME280;6917;52.194;9.894;2022-08-01T02:26:17;100168.66;;;17.82;100.00
13690;BME280;6917;52.194;9.894;2022-08-01T02:29:05;100162.75;;;17.84;100.00
13690;BME280;6917;52.194;9.894;2022-08-01T02:31:35;100171.03;;;17.84;100.00
13690;BME280;6917;52.194;9.894;2022-08-01T02:34:06;100170.69;;;17.86;100.00
13690;BME280;6917;52.194;9.894;2022-08-01T02:36:34;100168.34;;;17.88;100.00
13690;BME280;6917;52.194;9.894;2022-08-01T02:39:06;100170.31;;;17.87;100.00
13690;BME280;6917;52.194;9.894;2022-08-01T02:41:38;100176.63;;;17.88;100.00
13690;BME280;6917;52.194;9.894;2022-08-01T02:44:05;100182.16;;;17.88;100.00
13690;BME280;6917;52.194;9.894;2022-08-01T02:46:44;100192.41;;;17.87;100.00
13690;BME280;6917;52.194;9.894;2022-08-01T02:49:12;100198.75;;;17.88;100.00
13690;BME280;6917;52.194;9.894;2022-08-01T02:51:39;100195.91;;;17.84;100.00
13690;BME280;6917;52.194;9.894;2022-08-01T02:54:07;100192.16;;;17.73;100.00
13690;BME280;6917;52.194;9.894;2022-08-01T02:56:34;100197.94;;;17.68;100.00
13690;BME280;6917;52.194;9.894;2022-08-01T02:59:09;100195.03;;;17.61;100.00
13690;BME280;6917;52.194;9.894;2022-08-01T03:01:37;100193.81;;;17.58;100.00
13690;BME280;6917;52.194;9.894;2022-08-01T03:04:05;100199.63;;;17.53;100.00
13690;BME280;6917;52.194;9.894;2022-08-01T03:06:32;100200.44;;;17.53;100.00
13690;BME280;6917;52.194;9.894;2022-08-01T03:09:00;100200.81;;;17.52;100.00
13690;BME280;6917;52.194;9.894;2022-08-01T03:11:27;100206.31;;;17.52;100.00
13690;BME280;6917;52.194;9.894;2022-08-01T03:13:53;100201.22;;;17.54;100.00
13690;BME280;6917;52.194;9.894;2022-08-01T03:16:22;100198.03;;;17.52;100.00
13690;BME280;6917;52.194;9.894;2022-08-01T03:18:48;100199.19;;;17.51;100.00
13690;BME280;6917;52.194;9.894;2022-08-01T03:21:15;100200.00;;;17.51;100.00
13690;BME280;6917;52.194;9.894;2022-08-01T03:23:43;100199.63;;;17.53;100.00
13690;BME280;6917;52.194;9.894;2022-08-01T03:26:10;100207.19;;;17.56;100.00
13690;BME280;6917;52.194;9.894;2022-08-01T03:28:38;100197.38;;;17.59;100.00
13690;BME280;6917;52.194;9.894;2022-08-01T03:31:04;100200.56;;;17.61;100.00
13690;BME280;6917;52.194;9.894;2022-08-01T03:33:30;100194.66;;;17.62;100.00
13690;BME280;6917;52.194;9.894;2022-08-01T03:35:56;100194.31;;;17.64;100.00
13690;BME280;6917;52.194;9.894;2022-08-01T03:38:25;100200.63;;;17.64;100.00
13690;BME280;6917;52.194;9.894;2022-08-01T03:41:13;100199.13;;;17.67;100.00
13690;BME280;6917;52.194;9.894;2022-08-01T03:43:45;100199.81;;;17.64;100.00
13690;BME280;6917;52.194;9.894;2022-08-01T03:46:19;100208.47;;;17.62;100.00
13690;BME280;6917;52.194;9.894;2022-08-01T03:48:47;100203.75;;;17.63;100.00
13690;BME280;6917;52.194;9.894;2022-08-01T03:51:14;100214.00;;;17.62;100.00
13690;BME280;6917;52.194;9.894;2022-08-01T03:53:41;100203.69;;;17.59;100.00
13690;BME280;6917;52.194;9.894;2022-08-01T03:56:08;100198.91;;;17.56;100.00
13690;BME280;6917;52.194;9.894;2022-08-01T03:58:37;100198.03;;;17.52;100.00
13690;BME280;6917;52.194;9.894;2022-08-01T04:01:05;100204.25;;;17.49;100.00
13690;BME280;6917;52.194;9.894;2022-08-01T04:03:32;100214.16;;;17.50;100.00
13690;BME280;6917;52.194;9.894;2022-08-01T04:05:58;100204.63;;;17.47;100.00
13690;BME280;6917;52.194;9.894;2022-08-01T04:08:42;100223.16;;;17.47;100.00
13690;BME280;6917;52.194;9.894;2022-08-01T04:11:08;100222.44;;;17.50;100.00
13690;BME280;6917;52.194;9.894;2022-08-01T04:13:34;100223.16;;;17.47;100.00
13690;BME280;6917;52.194;9.894;2022-08-01T04:16:00;100240.09;;;17.45;100.00
13690;BME280;6917;52.194;9.894;2022-08-01T04:18:25;100227.03;;;17.42;100.00
13690;BME280;6917;52.194;9.894;2022-08-01T04:20:50;100237.66;;;17.40;100.00
13690;BME280;6917;52.194;9.894;2022-08-01T04:23:18;100242.38;;;17.40;100.00
13690;BME280;6917;52.194;9.894;2022-08-01T04:25:46;100243.97;;;17.41;100.00
13690;BME280;6917;52.194;9.894;2022-08-01T04:28:14;100254.59;;;17.39;100.00
13690;BME280;6917;52.194;9.894;2022-08-01T04:30:46;100255.75;;;17.38;100.00
13690;BME280;6917;52.194;9.894;2022-08-01T04:33:14;100256.91;;;17.37;100.00
13690;BME280;6917;52.194;9.894;2022-08-01T04:35:46;100264.72;;;17.35;100.00
13690;BME280;6917;52.194;9.894;2022-08-01T04:38:14;100261.16;;;17.34;100.00
13690;BME280;6917;52.194;9.894;2022-08-01T04:40:42;100270.63;;;17.33;100.00
13690;BME280;6917;52.194;9.894;2022-08-01T04:43:08;100273.00;;;17.35;100.00
13690;BME280;6917;52.194;9.894;2022-08-01T04:45:34;100279.81;;;17.37;100.00
13690;BME280;6917;52.194;9.894;2022-08-01T04:48:01;100279.00;;;17.37;100.00
13690;BME280;6917;52.194;9.894;2022-08-01T04:50:31;100285.41;;;17.41;100.00
13690;BME280;6917;52.194;9.894;2022-08-01T04:52:57;100288.59;;;17.43;100.00
13690;BME280;6917;52.194;9.894;2022-08-01T04:55:22;100280.31;;;17.43;100.00
13690;BME280;6917;52.194;9.894;2022-08-01T04:57:48;100280.81;;;17.48;100.00
13690;BME280;6917;52.194;9.894;2022-08-01T05:00:14;100286.44;;;17.52;100.00
13690;BME280;6917;52.194;9.894;2022-08-01T05:02:41;100294.44;;;17.57;100.00
13690;BME280;6917;52.194;9.894;2022-08-01T05:05:07;100293.34;;;17.62;100.00
13690;BME280;6917;52.194;9.894;2022-08-01T05:07:33;100296.91;;;17.62;100.00
13690;BME280;6917;52.194;9.894;2022-08-01T05:09:58;100292.16;;;17.63;100.00
13690;BME280;6917;52.194;9.894;2022-08-01T05:12:24;100289.50;;;17.66;100.00
13690;BME280;6917;52.194;9.894;2022-08-01T05:14:49;100285.94;;;17.66;100.00
13690;BME280;6917;52.194;9.894;2022-08-01T05:17:14;100289.97;;;17.68;100.00
13690;BME280;6917;52.194;9.894;2022-08-01T05:19:42;100293.53;;;17.69;100.00
13690;BME280;6917;52.194;9.894;2022-08-01T05:22:09;100300.66;;;17.70;100.00
13690;BME280;6917;52.194;9.894;2022-08-01T05:24:36;100306.97;;;17.70;100.00
13690;BME280;6917;52.194;9.894;2022-08-01T05:27:02;100306.19;;;17.70;100.00
13690;BME280;6917;52.194;9.894;2022-08-01T05:29:28;100307.34;;;17.69;100.00
13690;BME280;6917;52.194;9.894;2022-08-01T05:31:53;100308.16;;;17.69;100.00
13690;BME280;6917;52.194;9.894;2022-08-01T05:34:19;100308.94;;;17.70;100.00
13690;BME280;6917;52.194;9.894;2022-08-01T05:36:45;100305.81;;;17.71;100.00
13690;BME280;6917;52.194;9.894;2022-08-01T05:39:12;100303.47;;;17.73;100.00
13690;BME280;6917;52.194;9.894;2022-08-01T05:41:38;100300.00;;;17.76;100.00
13690;BME280;6917;52.194;9.894;2022-08-01T05:44:04;100315.03;;;17.79;100.00
13690;BME280;6917;52.194;9.894;2022-08-01T05:46:29;100311.47;;;17.78;100.00
13690;BME280;6917;52.194;9.894;2022-08-01T05:48:59;100309.44;;;17.75;100.00
13690;BME280;6917;52.194;9.894;2022-08-01T05:51:24;100307.34;;;17.69;100.00
13690;BME280;6917;52.194;9.894;2022-08-01T05:53:50;100308.75;;;17.63;100.00
13690;BME280;6917;52.194;9.894;2022-08-01T05:56:16;100311.44;;;17.59;100.00
13690;BME280;6917;52.194;9.894;2022-08-01T05:58:41;100317.03;;;17.63;100.00
13690;BME280;6917;52.194;9.894;2022-08-01T06:01:06;100316.34;;;17.66;100.00
13690;BME280;6917;52.194;9.894;2022-08-01T06:03:32;100316.44;;;17.69;100.00
13690;BME280;6917;52.194;9.894;2022-08-01T06:06:01;100315.97;;;17.67;100.00
13690;BME280;6917;52.194;9.894;2022-08-01T06:08:27;100316.44;;;17.69;100.00
13690;BME280;6917;52.194;9.894;2022-08-01T06:10:52;100315.38;;;17.58;100.00
13690;BME280;6917;52.194;9.894;2022-08-01T06:13:18;100322.34;;;17.52;100.00
13690;BME280;6917;52.194;9.894;2022-08-01T06:15:47;100329.91;;;17.55;100.00
13690;BME280;6917;52.194;9.894;2022-08-01T06:18:13;100325.31;;;17.63;100.00
13690;BME280;6917;52.194;9.894;2022-08-01T06:20:38;100328.00;;;17.59;100.00
13690;BME280;6917;52.194;9.894;2022-08-01T06:23:03;100324.16;;;17.64;100.00
13690;BME280;6917;52.194;9.894;2022-08-01T06:25:29;100326.91;;;17.64;100.00
13690;BME280;6917;52.194;9.894;2022-08-01T06:27:54;100331.28;;;17.65;100.00
13690;BME280;6917;52.194;9.894;2022-08-01T06:30:20;100337.00;;;17.72;100.00
13690;BME280;6917;52.194;9.894;2022-08-01T06:32:46;100333.59;;;17.78;100.00
13690;BME280;6917;52.194;9.894;2022-08-01T06:35:12;100330.47;;;17.80;100.00
13690;BME280;6917;52.194;9.894;2022-08-01T06:37:38;100335.34;;;17.87;100.00
13690;BME280;6917;52.194;9.894;2022-08-01T06:40:05;100340.88;;;17.87;100.00
13690;BME280;6917;52.194;9.894;2022-08-01T06:42:30;100334.69;;;17.93;100.00
13690;BME280;6917;52.194;9.894;2022-08-01T06:45:09;100339.63;;;18.03;100.00
13690;BME280;6917;52.194;9.894;2022-08-01T06:47:35;100332.13;;;18.04;100.00
13690;BME280;6917;52.194;9.894;2022-08-01T06:50:02;100339.28;;;18.05;100.00
13690;BME280;6917;52.194;9.894;2022-08-01T06:52:28;100339.78;;;18.10;100.00
13690;BME280;6917;52.194;9.894;2022-08-01T06:54:53;100337.31;;;18.05;100.00
13690;BME280;6917;52.194;9.894;2022-08-01T06:57:18;100347.28;;;18.10;100.00
13690;BME280;6917;52.194;9.894;2022-08-01T06:59:44;100348.00;;;18.07;100.00
13690;BME280;6917;52.194;9.894;2022-08-01T07:02:09;100350.31;;;18.05;100.00
13690;BME280;6917;52.194;9.894;2022-08-01T07:04:34;100353.19;;;18.08;100.00
13690;BME280;6917;52.194;9.894;2022-08-01T07:07:00;100347.94;;;18.03;100.00
13690;BME280;6917;52.194;9.894;2022-08-01T07:09:26;100351.50;;;18.04;100.00
13690;BME280;6917;52.194;9.894;2022-08-01T07:11:53;100357.47;;;17.87;100.00
13690;BME280;6917;52.194;9.894;2022-08-01T07:14:19;100360.66;;;17.69;100.00
13690;BME280;6917;52.194;9.894;2022-08-01T07:16:44;100362.69;;;17.72;100.00
13690;BME280;6917;52.194;9.894;2022-08-01T07:19:10;100367.78;;;17.70;100.00
13690;BME280;6917;52.194;9.894;2022-08-01T07:21:36;100360.53;;;17.66;100.00
13690;BME280;6917;52.194;9.894;2022-08-01T07:24:01;100352.00;;;17.71;100.00
13690;BME280;6917;52.194;9.894;2022-08-01T07:26:26;100375.34;;;17.73;100.00
13690;BME280;6917;52.194;9.894;2022-08-01T07:28:52;100371.78;;;17.57;100.00
13690;BME280;6917;52.194;9.894;2022-08-01T07:31:18;100369.03;;;17.57;100.00
13690;BME280;6917;52.194;9.894;2022-08-01T07:33:44;100371.78;;;17.57;100.00
13690;BME280;6917;52.194;9.894;2022-08-01T07:36:09;100372.50;;;17.54;100.00
13690;BME280;6917;52.194;9.894;2022-08-01T07:38:34;100373.47;;;17.62;100.00
13690;BME280;6917;52.194;9.894;2022-08-01T07:41:00;100384.34;;;17.54;100.00
13690;BME280;6917;52.194;9.894;2022-08-01T07:43:25;100375.63;;;17.68;100.00
13690;BME280;6917;52.194;9.894;2022-08-01T07:45:50;100373.00;;;17.75;100.00
13690;BME280;6917;52.194;9.894;2022-08-01T07:48:16;100382.81;;;17.73;100.00
13690;BME280;6917;52.194;9.894;2022-08-01T07:50:41;100379.22;;;17.88;100.00
13690;BME280;6917;52.194;9.894;2022-08-01T07:53:07;100385.75;;;17.80;100.00
13690;BME280;6917;52.194;9.894;2022-08-01T07:55:32;100384.38;;;17.90;100.00
13690;BME280;6917;52.194;9.894;2022-08-01T07:57:57;100381.53;;;17.86;100.00
13690;BME280;6917;52.194;9.894;2022-08-01T08:00:24;100396.41;;;17.97;100.00
13690;BME280;6917;52.194;9.894;2022-08-01T08:02:49;100395.00;;;18.07;100.00
13690;BME280;6917;52.194;9.894;2022-08-01T08:05:15;100390.06;;;17.97;100.00
13690;BME280;6917;52.194;9.894;2022-08-01T08:07:40;100403.66;;;17.86;100.00
13690;BME280;6917;52.194;9.894;2022-08-01T08:10:06;100405.84;;;17.96;100.00
13690;BME280;6917;52.194;9.894;2022-08-01T08:12:31;100405.50;;;17.98;100.00
13690;BME280;6917;52.194;9.894;2022-08-01T08:14:57;100413.28;;;18.11;100.00
13690;BME280;6917;52.194;9.894;2022-08-01T08:17:26;100407.88;;;18.19;100.00
13690;BME280;6917;52.194;9.894;2022-08-01T08:19:52;100409.28;;;18.28;100.00
13690;BME280;6917;52.194;9.894;2022-08-01T08:22:18;100414.16;;;18.35;100.00
13690;BME280;6917;52.194;9.894;2022-08-01T08:24:43;100409.69;;;18.50;100.00
13690;BME280;6917;52.194;9.894;2022-08-01T08:27:09;100421.22;;;18.52;100.00
13690;BME280;6917;52.194;9.894;2022-08-01T08:29:34;100425.66;;;18.56;100.00
13690;BME280;6917;52.194;9.894;2022-08-01T08:32:00;100433.41;;;18.66;100.00
13690;BME280;6917;52.194;9.894;2022-08-01T08:34:27;100432.28;;;18.52;100.00
13690;BME280;6917;52.194;9.894;2022-08-01T08:36:54;100428.34;;;18.53;100.00
13690;BME280;6917;52.194;9.894;2022-08-01T08:39:20;100440.28;;;18.76;100.00
13690;BME280;6917;52.194;9.894;2022-08-01T08:41:46;100434.25;;;18.70;100.00
13690;BME280;6917;52.194;9.894;2022-08-01T08:44:12;100444.16;;;18.71;100.00
13690;BME280;6917;52.194;9.894;2022-08-01T08:46:46;100444.22;;;18.75;100.00
13690;BME280;6917;52.194;9.894;2022-08-01T08:49:15;100440.84;;;18.85;100.00
13690;BME280;6917;52.194;9.894;2022-08-01T08:51:41;100450.63;;;18.79;100.00
13690;BME280;6917;52.194;9.894;2022-08-01T08:54:10;100448.16;;;18.74;100.00
13690;BME280;6917;52.194;9.894;2022-08-01T08:56:37;100459.66;;;18.76;100.00
13690;BME280;6917;52.194;9.894;2022-08-01T08:59:03;100454.28;;;18.83;100.00
13690;BME280;6917;52.194;9.894;2022-08-01T09:01:28;100463.06;;;18.89;100.00
13690;BME280;6917;52.194;9.894;2022-08-01T09:03:57;100462.38;;;18.72;100.00
13690;BME280;6917;52.194;9.894;2022-08-01T09:06:23;100468.22;;;18.67;100.00
13690;BME280;6917;52.194;9.894;2022-08-01T09:08:48;100469.25;;;18.63;100.00
13690;BME280;6917;52.194;9.894;2022-08-01T09:11:14;100477.00;;;18.54;100.00
13690;BME280;6917;52.194;9.894;2022-08-01T09:13:39;100478.66;;;18.58;100.00
13690;BME280;6917;52.194;9.894;2022-08-01T09:16:05;100479.53;;;18.62;100.00
13690;BME280;6917;52.194;9.894;2022-08-01T09:18:36;100487.91;;;18.66;100.00
13690;BME280;6917;52.194;9.894;2022-08-01T09:26:12;100505.94;;;19.18;100.00
13690;BME280;6917;52.194;9.894;2022-08-01T09:28:38;100510.44;;;19.26;100.00
13690;BME280;6917;52.194;9.894;2022-08-01T09:31:39;100510.34;;;19.22;100.00
13690;BME280;6917;52.194;9.894;2022-08-01T09:34:04;100510.31;;;19.19;100.00
13690;BME280;6917;52.194;9.894;2022-08-01T09:36:45;100515.84;;;19.19;100.00
13690;BME280;6917;52.194;9.894;2022-08-01T09:39:14;100518.06;;;19.10;100.00
13690;BME280;6917;52.194;9.894;2022-08-01T09:41:40;100517.06;;;19.21;100.00
13690;BME280;6917;52.194;9.894;2022-08-01T09:44:06;100516.00;;;19.26;100.00
13690;BME280;6917;52.194;9.894;2022-08-01T09:46:31;100520.03;;;19.32;100.00
13690;BME280;6917;52.194;9.894;2022-08-01T09:49:02;100522.88;;;19.36;100.00
13690;BME280;6917;52.194;9.894;2022-08-01T09:51:33;100530.31;;;19.31;100.00
13690;BME280;6917;52.194;9.894;2022-08-01T09:54:00;100536.78;;;19.16;100.00
13690;BME280;6917;52.194;9.894;2022-08-01T09:56:25;100528.25;;;19.06;100.00
13690;BME280;6917;52.194;9.894;2022-08-01T09:58:59;100535.53;;;19.14;100.00
13690;BME280;6917;52.194;9.894;2022-08-01T10:01:25;100534.38;;;19.15;100.00
13690;BME280;6917;52.194;9.894;2022-08-01T10:04:22;100533.16;;;19.12;100.00
13690;BME280;6917;52.194;9.894;2022-08-01T10:06:50;100540.72;;;19.15;100.00
13690;BME280;6917;52.194;9.894;2022-08-01T10:09:29;100531.22;;;19.16;100.00
13690;BME280;6917;52.194;9.894;2022-08-01T10:11:55;100544.81;;;19.02;100.00
13690;BME280;6917;52.194;9.894;2022-08-01T10:14:23;100539.28;;;19.02;100.00
13690;BME280;6917;52.194;9.894;2022-08-01T10:16:51;100549.50;;;18.98;100.00
13690;BME280;6917;52.194;9.894;2022-08-01T10:19:18;100548.38;;;19.02;100.00
13690;BME280;6917;52.194;9.894;2022-08-01T10:21:45;100549.13;;;18.99;100.00
13690;BME280;6917;52.194;9.894;2022-08-01T10:24:15;100546.41;;;19.03;100.00
13690;BME280;6917;52.194;9.894;2022-08-01T10:26:41;100546.56;;;19.10;100.00
13690;BME280;6917;52.194;9.894;2022-08-01T10:29:08;100547.44;;;19.14;99.62
13690;BME280;6917;52.194;9.894;2022-08-01T10:31:34;100545.94;;;19.20;99.39
13690;BME280;6917;52.194;9.894;2022-08-01T10:34:00;100547.38;;;19.33;100.00
13690;BME280;6917;52.194;9.894;2022-08-01T10:36:26;100546.72;;;19.40;99.30
13690;BME280;6917;52.194;9.894;2022-08-01T10:38:54;100543.31;;;19.50;98.24
13690;BME280;6917;52.194;9.894;2022-08-01T10:41:20;100545.47;;;19.57;97.97
13690;BME280;6917;52.194;9.894;2022-08-01T10:43:46;100544.03;;;19.67;97.49
13690;BME280;6917;52.194;9.894;2022-08-01T10:46:12;100548.91;;;19.73;97.37
13690;BME280;6917;52.194;9.894;2022-08-01T10:51:26;100543.97;;;19.63;95.17
13690;BME280;6917;52.194;9.894;2022-08-01T10:53:53;100545.50;;;19.60;94.61
13690;BME280;6917;52.194;9.894;2022-08-01T10:56:20;100546.19;;;19.54;94.76
13690;BME280;6917;52.194;9.894;2022-08-01T10:58:47;100544.91;;;19.51;96.17
13690;BME280;6917;52.194;9.894;2022-08-01T11:03:42;100555.19;;;19.51;94.66
13690;BME280;6917;52.194;9.894;2022-08-01T11:06:16;100552.81;;;19.49;94.05
13690;BME280;6917;52.194;9.894;2022-08-01T11:08:50;100546.19;;;19.54;93.52
13690;BME280;6917;52.194;9.894;2022-08-01T11:11:16;100539.59;;;19.62;94.53
13690;BME280;6917;52.194;9.894;2022-08-01T11:16:39;100551.25;;;19.71;91.18
13690;BME280;6917;52.194;9.894;2022-08-01T11:19:07;100546.78;;;19.89;92.78
13690;BME280;6917;52.194;9.894;2022-08-01T11:21:58;100549.38;;;20.02;91.09
13690;BME280;6917;52.194;9.894;2022-08-01T11:27:24;100556.16;;;20.57;90.10
13690;BME280;6917;52.194;9.894;2022-08-01T11:32:45;100551.06;;;20.36;87.60
13690;BME280;6917;52.194;9.894;2022-08-01T11:35:11;100552.59;;;20.34;86.67
13690;BME280;6917;52.194;9.894;2022-08-01T11:37:37;100553.34;;;20.31;87.76
13690;BME280;6917;52.194;9.894;2022-08-01T11:40:26;100555.72;;;20.29;87.57
13690;BME280;6917;52.194;9.894;2022-08-01T11:45:51;100566.66;;;20.44;86.64
13690;BME280;6917;52.194;9.894;2022-08-01T11:48:19;100560.13;;;20.60;85.73
13690;BME280;6917;52.194;9.894;2022-08-01T11:50:45;100561.91;;;20.75;85.00
13690;BME280;6917;52.194;9.894;2022-08-01T11:53:10;100565.13;;;20.77;85.11
13690;BME280;6917;52.194;9.894;2022-08-01T11:55:50;100568.84;;;20.58;83.53
13690;BME280;6917;52.194;9.894;2022-08-01T11:58:21;100562.06;;;20.56;82.19
13690;BME280;6917;52.194;9.894;2022-08-01T12:00:55;100569.34;;;20.67;83.03
13690;BME280;6917;52.194;9.894;2022-08-01T12:03:28;100565.44;;;20.42;82.28
13690;BME280;6917;52.194;9.894;2022-08-01T12:05:55;100569.13;;;20.49;82.88
13690;BME280;6917;52.194;9.894;2022-08-01T12:08:29;100567.31;;;20.38;82.54
13690;BME280;6917;52.194;9.894;2022-08-01T12:10:58;100576.44;;;20.38;81.59
13690;BME280;6917;52.194;9.894;2022-08-01T12:13:23;100570.91;;;20.38;82.32
13690;BME280;6917;52.194;9.894;2022-08-01T12:15:49;100573.59;;;20.31;82.59
13690;BME280;6917;52.194;9.894;2022-08-01T12:18:17;100576.41;;;20.35;82.77
13690;BME280;6917;52.194;9.894;2022-08-01T12:20:44;100577.34;;;20.42;82.45
13690;BME280;6917;52.194;9.894;2022-08-01T12:23:12;100573.78;;;20.72;82.85
13690;BME280;6917;52.194;9.894;2022-08-01T12:25:38;100578.00;;;20.92;81.03
13690;BME280;6917;52.194;9.894;2022-08-01T12:28:06;100574.91;;;20.67;78.74
13690;BME280;6917;52.194;9.894;2022-08-01T12:30:33;100577.19;;;20.92;80.41
13690;BME280;6917;52.194;9.894;2022-08-01T12:33:04;100570.31;;;21.12;79.24
13690;BME280;6917;52.194;9.894;2022-08-01T12:35:31;100564.00;;;21.15;78.60
13690;BME280;6917;52.194;9.894;2022-08-01T12:38:04;100576.41;;;20.61;78.73
13690;BME280;6917;52.194;9.894;2022-08-01T12:40:41;100578.16;;;20.73;79.70
13690;BME280;6917;52.194;9.894;2022-08-01T12:43:07;100578.63;;;20.78;80.01
13690;BME280;6917;52.194;9.894;2022-08-01T12:48:00;100580.16;;;21.06;78.69
13690;BME280;6917;52.194;9.894;2022-08-01T12:50:28;100579.38;;;21.09;80.01
13690;BME280;6917;52.194;9.894;2022-08-01T12:52:55;100576.34;;;21.21;78.13
13690;BME280;6917;52.194;9.894;2022-08-01T12:55:22;100584.59;;;21.48;77.67
13690;BME280;6917;52.194;9.894;2022-08-01T12:57:50;100572.69;;;21.47;74.90
13690;BME280;6917;52.194;9.894;2022-08-01T13:00:24;100580.72;;;21.56;74.52
13690;BME280;6917;52.194;9.894;2022-08-01T13:03:01;100579.16;;;21.58;73.03
13690;BME280;6917;52.194;9.894;2022-08-01T13:05:27;100583.25;;;21.72;72.71
13690;BME280;6917;52.194;9.894;2022-08-01T13:07:53;100577.19;;;21.62;72.19
13690;BME280;6917;52.194;9.894;2022-08-01T13:10:30;100574.00;;;21.60;72.98
13690;BME280;6917;52.194;9.894;2022-08-01T13:15:41;100577.97;;;21.59;73.46
13690;BME280;6917;52.194;9.894;2022-08-01T13:21:16;100581.81;;;21.88;71.13
13690;BME280;6917;52.194;9.894;2022-08-01T13:24:05;100582.75;;;21.59;70.71
13690;BME280;6917;52.194;9.894;2022-08-01T13:29:07;100584.06;;;21.72;71.26
13690;BME280;6917;52.194;9.894;2022-08-01T13:31:33;100585.69;;;21.77;68.75
13690;BME280;6917;52.194;9.894;2022-08-01T13:33:59;100580.22;;;21.87;69.25
13690;BME280;6917;52.194;9.894;2022-08-01T13:36:24;100584.22;;;21.93;69.99